Time;durP1;ratioP1;P1;durP2;ratioP2;P2;SDS_P1;SDS_P2;PMS_P1;PMS_P2;Temp;Humidity;BMP_temperature;BMP_pressure;BME280_temperature;BME280_humidity;BME280_pressure;Samples;Min_cycle;Max_cycle;Signal;HPM_P1;HPM_P2
2022/10/08 00:00:18;;;;;;;38.25;24.70;;;;;;;27.71;74.03;98664.81;4871083;29;20049;-72
2022/10/08 00:03:14;;;;;;;;;;;;;;;27.58;73.69;98665.00;4870953;29;20128;-70
2022/10/08 00:06:02;;;;;;;33.72;23.55;;;;;;;27.66;74.44;98675.19;4871269;29;19927;-73
2022/10/08 00:09:03;;;;;;;34.75;23.98;;;;;;;27.65;73.89;98670.81;4870942;29;20053;-73
2022/10/08 00:11:39;;;;;;;32.20;24.70;;;;;;;27.61;74.48;98664.34;4873475;29;20136;-73
2022/10/08 00:14:34;;;;;;;39.10;24.35;;;;;;;27.71;74.09;98664.00;4871000;29;20128;-72
2022/10/08 00:17:16;;;;;;;29.55;22.83;;;;;;;27.72;73.86;98666.44;4871500;29;20097;-74
2022/10/08 00:20:05;;;;;;;31.52;23.58;;;;;;;27.88;73.08;98674.16;4871543;29;20048;-73
2022/10/08 00:22:48;;;;;;;34.80;24.27;;;;;;;27.91;73.09;98677.09;4856965;29;20056;-73
2022/10/08 00:25:36;;;;;;;32.78;24.75;;;;;;;27.66;73.55;98666.94;4873926;29;20093;-73
2022/10/08 00:28:18;;;;;;;31.48;24.20;;;;;;;27.92;72.79;98678.72;4874782;29;20497;-72
2022/10/08 00:31:12;;;;;;;34.47;24.25;;;;;;;27.84;73.35;98670.44;4858294;29;20100;-72
2022/10/08 00:34:05;;;;;;;34.83;24.42;;;;;;;27.72;74.05;98671.13;4875107;29;20105;-73
2022/10/08 00:36:57;;;;;;;30.58;23.50;;;;;;;27.82;73.06;98670.78;4874634;29;20059;-73
2022/10/08 00:39:40;;;;;;;37.88;24.60;;;;;;;27.60;73.97;98660.78;4874655;29;20048;-74
2022/10/08 00:42:28;;;;;;;34.72;24.70;;;;;;;27.83;72.76;98672.38;4877119;29;20059;-74
2022/10/08 00:45:13;;;;;;;32.30;24.50;;;;;;;27.83;73.21;98666.88;4893266;29;20072;-74
2022/10/08 00:48:03;;;;;;;30.85;23.65;;;;;;;27.62;74.21;98668.72;4877096;29;20048;-72
2022/10/08 00:50:46;;;;;;;31.70;23.85;;;;;;;27.69;73.51;98672.59;4874630;29;20089;-74
2022/10/08 00:53:35;;;;;;;38.45;24.70;;;;;;;27.70;73.85;98685.22;4874411;29;20127;-72
2022/10/08 00:56:25;;;;;;;38.33;25.70;;;;;;;27.61;74.25;98681.72;4874227;29;20116;-76
2022/10/08 00:59:15;;;;;;;41.30;27.63;;;;;;;27.32;75.07;98685.13;4874256;29;20064;-71
2022/10/08 01:01:57;;;;;;;40.58;27.08;;;;;;;27.50;74.48;98691.47;4874743;29;20081;-73
2022/10/08 01:04:48;;;;;;;37.63;26.85;;;;;;;27.46;74.67;98694.06;4874228;29;20053;-73
2022/10/08 01:08:04;;;;;;;48.42;27.25;;;;;;;27.57;74.11;98700.00;4874327;29;20064;-74
2022/10/08 01:11:02;;;;;;;42.22;27.75;;;;;;;27.57;74.19;98701.97;4873750;29;20041;-74
2022/10/08 01:13:57;;;;;;;36.45;26.20;;;;;;;27.57;74.32;98704.72;4857582;29;20053;-73
2022/10/08 01:17:05;;;;;;;41.03;29.75;;;;;;;27.40;74.96;98702.81;4854944;28;20482;-73
2022/10/08 01:20:25;;;;;;;44.25;30.63;;;;;;;27.28;75.09;98706.22;4855566;29;20050;-73
2022/10/08 01:23:26;;;;;;;50.63;32.70;;;;;;;27.00;75.77;98705.69;4815581;29;20054;-71
2022/10/08 01:26:31;;;;;;;43.92;31.05;;;;;;;27.35;74.92;98712.06;4854884;29;20061;-73
2022/10/08 01:29:34;;;;;;;55.58;36.03;;;;;;;27.35;75.27;98717.56;4855221;29;20057;-75
2022/10/08 01:32:21;;;;;;;51.60;34.50;;;;;;;27.43;75.00;98725.00;4856243;29;20363;-73
2022/10/08 01:35:14;;;;;;;60.42;36.92;;;;;;;27.46;74.78;98732.63;4873838;29;20060;-74
2022/10/08 01:38:01;;;;;;;52.53;35.53;;;;;;;27.59;74.46;98735.53;4872901;29;20076;-73
2022/10/08 01:40:57;;;;;;;60.63;38.28;;;;;;;27.56;74.07;98737.00;4866754;29;20057;-73
2022/10/08 01:43:46;;;;;;;59.38;37.90;;;;;;;27.51;75.04;98735.22;4853752;29;20116;-75
2022/10/08 01:46:36;;;;;;;60.10;39.30;;;;;;;27.60;74.31;98750.94;4854510;29;20111;-74
2022/10/08 01:49:23;;;;;;;60.28;39.72;;;;;;;27.41;74.54;98743.03;4853919;29;20056;-73
2022/10/08 01:52:19;;;;;;;62.47;38.13;;;;;;;27.23;75.60;98744.91;4854111;29;20109;-71
2022/10/08 01:55:04;;;;;;;56.53;38.20;;;;;;;26.97;76.78;98751.22;4854793;29;20749;-73
2022/10/08 01:57:56;;;;;;;64.75;36.72;;;;;;;27.34;75.53;98749.00;4859046;29;20053;-74
2022/10/08 02:00:50;;;;;;;51.67;33.28;;;;;;;27.49;74.96;98753.22;4853734;29;20144;-75
2022/10/08 02:04:31;;;;;;;55.97;35.90;;;;;;;27.17;76.11;98751.72;4855943;29;20482;-75
2022/10/08 02:06:46;;;;;;;51.95;33.80;;;;;;;27.27;75.96;98760.53;4854750;29;20050;-73
2022/10/08 02:09:39;;;;;;;63.47;35.03;;;;;;;26.86;77.47;98777.44;4870495;29;20838;-73
2022/10/08 02:12:24;;;;;;;59.90;39.50;;;;;;;27.05;76.77;98780.72;4873915;29;20064;-72
2022/10/08 02:15:17;;;;;;;53.80;36.08;;;;;;;27.56;75.58;98783.06;4872879;29;20048;-73
2022/10/08 02:18:19;;;;;;;55.28;37.65;;;;;;;27.53;75.23;98785.34;4888582;29;20056;-73
2022/10/08 02:21:17;;;;;;;59.53;38.38;;;;;;;27.19;76.17;98785.28;4872550;29;20057;-71
2022/10/08 02:24:33;;;;;;;50.47;34.17;;;;;;;27.66;74.77;98782.72;4858587;29;20542;-73
2022/10/08 02:27:29;;;;;;;46.72;31.52;;;;;;;27.94;73.48;98785.16;4857892;29;20509;-74
2022/10/08 02:30:15;;;;;;;44.92;32.60;;;;;;;27.38;75.61;98791.34;4872456;29;20060;-72
2022/10/08 02:33:10;;;;;;;46.63;31.92;;;;;;;27.75;74.81;98808.34;4873012;29;20041;-74
2022/10/08 02:35:56;;;;;;;47.75;31.80;;;;;;;27.97;74.15;98810.13;4872739;29;20041;-75
2022/10/08 02:39:00;;;;;;;45.15;32.63;;;;;;;28.06;73.33;98805.41;4872638;29;20060;-74
2022/10/08 02:41:55;;;;;;;40.83;30.15;;;;;;;27.92;74.22;98808.34;4871799;29;20120;-74
2022/10/08 02:44:52;;;;;;;39.15;28.20;;;;;;;28.07;73.46;98803.44;4886409;29;20064;-74
2022/10/08 02:47:43;;;;;;;39.42;28.90;;;;;;;27.91;73.77;98805.91;4872636;29;20124;-72
2022/10/08 02:50:28;;;;;;;36.42;26.73;;;;;;;28.46;72.77;98809.84;4872149;29;20508;-73
2022/10/08 02:53:19;;;;;;;36.03;26.55;;;;;;;28.34;72.84;98807.78;4853722;29;20053;-74
2022/10/08 02:56:23;;;;;;;39.42;26.80;;;;;;;28.14;72.63;98809.28;4854682;29;20133;-74
2022/10/08 02:59:13;;;;;;;41.10;26.50;;;;;;;28.06;73.11;98816.44;4883912;29;20334;-73
2022/10/08 03:01:59;;;;;;;36.33;25.87;;;;;;;28.53;72.27;98815.69;4872484;29;20063;-74
2022/10/08 03:05:00;;;;;;;34.90;25.73;;;;;;;28.70;71.47;98821.16;4872260;29;20049;-73
2022/10/08 03:08:00;;;;;;;38.92;25.27;;;;;;;28.79;71.35;98823.03;4872074;29;20462;-72
2022/10/08 03:10:55;;;;;;;36.78;25.80;;;;;;;28.63;71.61;98822.81;4872259;29;20049;-71
2022/10/08 03:13:36;;;;;;;39.50;26.30;;;;;;;28.46;72.25;98820.88;4871784;29;20053;-72
2022/10/08 03:16:43;;;;;;;35.90;26.08;;;;;;;28.57;71.99;98826.91;4872881;29;20057;-72
2022/10/08 03:19:34;;;;;;;39.92;26.45;;;;;;;28.87;72.36;98822.19;4872333;29;20128;-73
2022/10/08 03:22:22;;;;;;;35.30;27.25;;;;;;;29.00;70.83;98821.13;4872610;29;20056;-72
2022/10/08 03:25:05;;;;;;;43.67;28.95;;;;;;;28.36;73.03;98822.06;4872040;29;20067;-73
2022/10/08 03:27:55;;;;;;;42.30;29.38;;;;;;;28.39;72.05;98821.38;4871954;29;20112;-73
2022/10/08 03:30:37;;;;;;;44.92;28.90;;;;;;;28.84;71.35;98831.16;4872695;29;20751;-72
2022/10/08 03:33:26;;;;;;;41.40;28.60;;;;;;;28.64;71.71;98832.69;4848522;29;20057;-72
2022/10/08 03:36:08;;;;;;;36.00;27.48;;;;;;;29.21;71.31;98829.50;4853136;29;20085;-72
2022/10/08 03:38:58;;;;;;;46.72;29.35;;;;;;;28.73;69.85;98827.16;4872708;29;20102;-74
2022/10/08 03:41:40;;;;;;;40.83;29.02;;;;;;;28.83;69.50;98818.47;4872308;29;20059;-72
2022/10/08 03:44:29;;;;;;;39.88;29.33;;;;;;;29.38;69.55;98816.69;4871774;29;20041;-72
2022/10/08 03:47:18;;;;;;;47.30;30.45;;;;;;;29.59;68.15;98823.03;4871777;29;20049;-73
2022/10/08 03:50:07;;;;;;;41.55;29.60;;;;;;;29.59;68.76;98827.75;4872794;29;20412;-72
2022/10/08 03:52:49;;;;;;;42.63;29.67;;;;;;;29.73;68.05;98821.97;4875408;29;20093;-73
2022/10/08 03:55:40;;;;;;;44.30;30.23;;;;;;;29.81;67.49;98824.69;4891009;29;20071;-72
2022/10/08 03:58:22;;;;;;;47.65;30.42;;;;;;;30.16;66.83;98824.31;4890525;29;20064;-72
2022/10/08 04:01:19;;;;;;;40.28;28.55;;;;;;;30.28;66.02;98825.50;4890901;29;20060;-72
2022/10/08 04:04:08;;;;;;;42.35;29.13;;;;;;;30.42;65.12;98815.78;4885276;29;20077;-71
2022/10/08 04:07:02;;;;;;;53.28;31.17;;;;;;;30.54;65.74;98823.28;4861032;29;20049;-72
2022/10/08 04:09:51;;;;;;;40.42;31.20;;;;;;;30.32;65.03;98829.25;4872347;29;20049;-73
2022/10/08 04:12:41;;;;;;;43.28;30.75;;;;;;;30.17;66.09;98825.13;4872127;29;20077;-73
2022/10/08 04:15:22;;;;;;;44.47;31.60;;;;;;;30.86;64.60;98826.31;4872146;29;20057;-74
2022/10/08 04:18:19;;;;;;;42.70;30.73;;;;;;;31.32;63.04;98818.66;4866386;29;20064;-73
2022/10/08 04:20:58;;;;;;;45.72;31.02;;;;;;;31.23;62.02;98823.53;4870662;29;20045;-74
2022/10/08 04:23:48;;;;;;;47.70;30.88;;;;;;;31.41;64.54;98822.09;4886621;29;20072;-73
2022/10/08 04:26:37;;;;;;;46.92;32.78;;;;;;;31.17;63.74;98827.69;4890321;29;20068;-72
2022/10/08 04:29:26;;;;;;;48.35;32.92;;;;;;;31.48;63.10;98810.44;4890845;29;20066;-71
2022/10/08 04:32:15;;;;;;;52.72;31.42;;;;;;;31.71;62.14;98815.44;4884668;29;20143;-71
2022/10/08 04:34:57;;;;;;;54.90;33.17;;;;;;;31.81;62.21;98809.38;4874050;29;20076;-73
2022/10/08 04:37:46;;;;;;;48.72;32.30;;;;;;;31.41;61.85;98807.41;4871926;29;20057;-75
2022/10/08 04:40:28;;;;;;;59.22;34.75;;;;;;;31.61;60.94;98808.44;4871303;29;20430;-71
2022/10/08 04:43:17;;;;;;;51.10;34.03;;;;;;;31.65;61.95;98803.78;4852195;29;20061;-74
2022/10/08 04:45:59;;;;;;;52.15;33.08;;;;;;;32.05;61.54;98810.47;4859938;29;20533;-73
2022/10/08 04:48:54;;;;;;;54.38;36.75;;;;;;;31.93;59.63;98802.97;4871742;29;20120;-73
2022/10/08 04:51:49;;;;;;;64.05;38.15;;;;;;;31.69;60.45;98806.69;4871533;29;20049;-72
2022/10/08 04:54:25;;;;;;;56.58;36.10;;;;;;;32.28;58.59;98805.13;4872570;29;20061;-72
2022/10/08 04:57:20;;;;;;;58.15;36.95;;;;;;;32.25;58.80;98800.28;4855304;29;20064;-72
2022/10/08 04:59:56;;;;;;;50.17;34.50;;;;;;;32.33;56.26;98805.69;4871609;29;20093;-73
2022/10/08 05:03:04;;;;;;;49.90;35.45;;;;;;;32.32;56.65;98808.81;4871086;29;20049;-73
2022/10/08 05:05:45;;;;;;;54.28;37.38;;;;;;;32.61;55.41;98804.81;4871302;29;20097;-73
2022/10/08 05:08:40;;;;;;;56.85;37.17;;;;;;;32.32;56.68;98806.03;4855278;29;20381;-72
2022/10/08 05:11:17;;;;;;;65.15;38.00;;;;;;;32.58;55.57;98800.78;4855509;29;20375;-72
2022/10/08 05:14:12;;;;;;;58.97;37.47;;;;;;;32.36;57.18;98804.16;4875034;29;20060;-72
2022/10/08 05:17:00;;;;;;;62.45;39.67;;;;;;;32.10;56.86;98794.38;4875490;29;20060;-73
2022/10/08 05:19:55;;;;;;;64.10;39.30;;;;;;;31.98;58.46;98803.53;4874476;29;20128;-73
2022/10/08 05:22:31;;;;;;;62.72;40.38;;;;;;;31.37;59.58;98804.53;4874969;29;20053;-72
2022/10/08 05:25:26;;;;;;;67.10;40.17;;;;;;;33.00;56.76;98799.41;4860292;29;20061;-72
2022/10/08 05:28:03;;;;;;;81.50;43.33;;;;;;;32.51;56.41;98794.22;4855121;29;20586;-70
2022/10/08 05:30:57;;;;;;;71.18;44.08;;;;;;;32.43;56.45;98793.22;4856302;29;20117;-70
2022/10/08 05:33:47;;;;;;;71.38;44.88;;;;;;;32.18;57.53;98784.25;4865220;29;20581;-71
2022/10/08 05:36:32;;;;;;;82.10;47.35;;;;;;;32.61;58.21;98788.13;4868560;29;20053;-70
2022/10/08 05:39:20;;;;;;;92.53;53.53;;;;;;;32.32;56.78;98787.38;4873649;29;20044;-70
2022/10/08 05:42:02;;;;;;;91.70;56.88;;;;;;;32.34;54.62;98778.72;4872944;29;20609;-70
2022/10/08 05:44:51;;;;;;;73.15;49.80;;;;;;;32.87;55.45;98779.25;4873568;29;20055;-70
2022/10/08 05:47:33;;;;;;;99.00;59.17;;;;;;;32.77;56.75;98775.03;4873288;29;20076;-70
2022/10/08 05:50:22;;;;;;;101.97;62.40;;;;;;;32.68;55.51;98781.97;4873168;29;20057;-69
2022/10/08 05:53:04;;;;;;;97.93;63.33;;;;;;;32.02;56.70;98775.88;4873571;29;20045;-71
2022/10/08 05:55:53;;;;;;;114.85;65.63;;;;;;;31.60;57.86;98779.06;4872588;29;20429;-73
2022/10/08 05:58:38;;;;;;;110.90;64.10;;;;;;;32.16;56.70;98767.94;4856614;29;20427;-72
2022/10/08 06:01:31;;;;;;;83.15;53.70;;;;;;;31.83;59.52;98768.22;4855568;29;20053;-71
2022/10/08 06:04:13;;;;;;;72.28;45.25;;;;;;;32.07;59.72;98767.31;4858154;29;20468;-71
2022/10/08 06:07:02;;;;;;;54.50;37.05;;;;;;;31.71;59.93;98763.53;4872112;29;20061;-72
2022/10/08 06:09:44;;;;;;;47.63;33.90;;;;;;;32.31;59.47;98757.19;4872995;29;20489;-71
2022/10/08 06:12:33;;;;;;;65.25;39.55;;;;;;;31.65;59.97;98751.09;4880528;29;20057;-71
2022/10/08 06:15:15;;;;;;;70.80;43.28;;;;;;;31.63;60.63;98741.50;4873687;29;20057;-71
2022/10/08 06:18:10;;;;;;;68.90;44.28;;;;;;;32.58;57.43;98745.22;4860394;29;20125;-71
2022/10/08 06:21:14;;;;;;;85.32;50.60;;;;;;;32.33;58.40;98740.97;4868710;29;20056;-70
2022/10/08 06:24:05;;;;;;;86.77;53.03;;;;;;;32.78;57.66;98737.72;4860218;29;20065;-72
2022/10/08 06:26:47;;;;;;;82.00;50.05;;;;;;;32.99;55.79;98730.25;4859790;29;20612;-72
2022/10/08 06:29:36;;;;;;;77.32;49.63;;;;;;;32.88;56.00;98727.22;4859528;29;20057;-72
2022/10/08 06:32:18;;;;;;;75.82;49.38;;;;;;;33.64;55.56;98719.31;4854748;29;20586;-72
2022/10/08 06:35:07;;;;;;;74.72;49.10;;;;;;;33.33;56.56;98717.50;4854495;29;20176;-70
2022/10/08 06:37:50;;;;;;;82.57;53.67;;;;;;;32.78;55.39;98720.25;4852206;29;20419;-71
2022/10/08 06:40:42;;;;;;;82.38;51.28;;;;;;;33.62;57.04;98709.72;4853632;29;20060;-73
2022/10/08 06:43:31;;;;;;;93.05;55.72;;;;;;;33.07;52.50;98709.75;4855409;29;20049;-72
2022/10/08 06:46:13;;;;;;;84.82;53.58;;;;;;;33.49;54.35;98709.06;4854841;29;20057;-72
2022/10/08 06:49:09;;;;;;;82.53;52.97;;;;;;;33.41;57.34;98707.31;4855206;29;20058;-71
2022/10/08 06:51:45;;;;;;;77.53;49.22;;;;;;;33.59;53.84;98702.88;4854610;29;20053;-72
2022/10/08 06:54:40;;;;;;;76.88;48.20;;;;;;;33.64;53.13;98693.47;4846214;29;20129;-71
2022/10/08 06:57:16;;;;;;;74.03;45.42;;;;;;;33.19;54.38;98689.38;4853540;29;20061;-70
2022/10/08 07:00:05;;;;;;;74.90;45.80;;;;;;;33.09;54.16;98688.75;4855850;29;20494;-70
2022/10/08 07:02:54;;;;;;;68.35;47.05;;;;;;;32.69;54.54;98677.97;4854377;29;20061;-68
2022/10/08 07:05:35;;;;;;;64.80;44.05;;;;;;;33.10;55.12;98673.72;4853697;29;20061;-70
2022/10/08 07:08:25;;;;;;;72.72;41.38;;;;;;;32.99;54.99;98669.09;4853227;29;20077;-69
2022/10/08 07:11:12;;;;;;;60.05;40.58;;;;;;;33.30;52.73;98670.94;4855656;29;20506;-68
2022/10/08 07:14:02;;;;;;;65.07;44.10;;;;;;;33.11;54.20;98660.63;4855191;29;20659;-68
2022/10/08 07:16:58;;;;;;;64.55;41.78;;;;;;;33.27;53.18;98658.56;4850919;29;20541;-72
2022/10/08 07:19:53;;;;;;;63.75;41.00;;;;;;;33.07;57.00;98654.94;4859936;29;20061;-72
2022/10/08 07:22:28;;;;;;;70.57;42.45;;;;;;;32.88;54.63;98641.84;4858716;29;20068;-70
2022/10/08 07:25:24;;;;;;;65.63;44.05;;;;;;;33.14;53.97;98651.56;4856620;29;20312;-73
2022/10/08 07:27:59;;;;;;;70.38;42.55;;;;;;;33.27;54.91;98641.88;4856631;29;20057;-71
2022/10/08 07:30:48;;;;;;;66.43;40.78;;;;;;;32.98;52.97;98634.94;4850761;29;20108;-73
2022/10/08 07:33:41;;;;;;;54.72;37.47;;;;;;;32.77;53.85;98633.31;4851962;29;20530;-70
2022/10/08 07:36:25;;;;;;;64.63;38.75;;;;;;;33.11;54.99;98611.38;4849527;29;20060;-70
2022/10/08 07:39:19;;;;;;;64.00;40.67;;;;;;;33.23;54.35;98620.72;4851272;29;20057;-68
2022/10/08 07:42:00;;;;;;;63.92;39.08;;;;;;;32.91;53.28;98616.13;4870929;29;20553;-71
2022/10/08 07:44:50;;;;;;;60.40;39.90;;;;;;;32.94;55.07;98612.63;4834199;29;20533;-68
2022/10/08 07:47:32;;;;;;;60.47;39.63;;;;;;;33.02;54.90;98601.63;4853233;29;20209;-71
2022/10/08 07:50:22;;;;;;;62.03;40.17;;;;;;;33.11;51.60;98591.09;4509149;29;10000714;-69
2022/10/08 07:53:04;;;;;;;60.42;38.10;;;;;;;32.25;52.22;98581.72;4852868;29;20152;-69
2022/10/08 07:55:53;;;;;;;61.42;39.88;;;;;;;32.58;53.55;98584.06;4847175;29;20049;-69
2022/10/08 07:58:35;;;;;;;56.05;39.38;;;;;;;32.87;52.82;98579.09;4850457;29;20720;-67
2022/10/08 08:01:28;;;;;;;60.25;40.00;;;;;;;33.15;53.91;98572.50;4850592;29;20545;-69
2022/10/08 08:04:18;;;;;;;58.00;39.08;;;;;;;33.77;52.65;98574.44;4848522;29;20061;-70
2022/10/08 08:07:07;;;;;;;54.97;37.75;;;;;;;33.68;51.24;98566.31;4848161;29;20050;-66
2022/10/08 08:09:49;;;;;;;61.20;37.65;;;;;;;33.57;52.20;98557.75;4852032;29;20068;-68
2022/10/08 08:12:38;;;;;;;62.30;40.22;;;;;;;33.62;50.25;98551.88;4849444;29;20739;-70
2022/10/08 08:15:28;;;;;;;56.63;37.22;;;;;;;32.60;53.49;98546.78;4846901;29;20049;-68
2022/10/08 08:18:11;;;;;;;53.75;35.47;;;;;;;32.79;52.39;98546.78;4857761;29;20108;-68
2022/10/08 08:21:10;;;;;;;47.05;34.90;;;;;;;33.31;52.87;98539.84;4869293;29;20049;-70
2022/10/08 08:23:49;;;;;;;49.60;33.92;;;;;;;33.12;52.53;98534.34;4870248;29;20056;-68
2022/10/08 08:26:47;;;;;;;51.53;35.03;;;;;;;32.65;50.81;98530.63;4863359;29;20060;-69
2022/10/08 08:29:22;;;;;;;53.05;37.45;;;;;;;32.82;52.99;98531.34;4849273;29;20057;-69
2022/10/08 08:32:17;;;;;;;;;;;;;;;33.19;49.75;98517.78;4864489;29;20089;-69
2022/10/08 08:34:57;;;;;;;57.72;35.78;;;;;;;33.06;47.70;98513.53;4869337;29;20030;-69
2022/10/08 08:37:55;;;;;;;51.20;34.40;;;;;;;33.00;48.84;98509.44;4879131;29;20072;-69
2022/10/08 08:40:30;;;;;;;58.40;35.30;;;;;;;33.32;47.99;98508.06;4871217;29;20128;-68
2022/10/08 08:43:19;;;;;;;62.15;33.30;;;;;;;33.32;49.78;98501.69;4871806;29;20084;-69
2022/10/08 08:46:03;;;;;;;53.47;33.10;;;;;;;33.14;51.83;98499.41;4872575;29;20053;-68
2022/10/08 08:48:55;;;;;;;62.80;34.85;;;;;;;33.27;51.23;98490.91;4875032;29;20080;-69
2022/10/08 08:51:43;;;;;;;58.35;34.42;;;;;;;33.29;50.05;98483.78;4868652;29;20075;-68
2022/10/08 08:54:26;;;;;;;49.10;32.88;;;;;;;33.41;49.75;98482.00;4886724;29;20056;-68
2022/10/08 08:57:28;;;;;;;57.15;31.73;;;;;;;33.39;50.70;98465.66;4888012;29;20053;-69
2022/10/08 09:00:28;;;;;;;46.97;30.83;;;;;;;33.64;49.55;98468.06;4603350;29;10000814;-68
2022/10/08 09:03:33;;;;;;;59.83;31.02;;;;;;;33.21;47.65;98470.13;4873233;29;20985;-67
2022/10/08 09:06:21;;;;;;;45.22;27.30;;;;;;;33.34;47.35;98458.44;4871823;29;20352;-68
2022/10/08 09:09:38;;;;;;;50.17;27.42;;;;;;;33.49;46.57;98450.31;4868989;29;20041;-69
2022/10/08 09:12:26;;;;;;;51.88;26.70;;;;;;;33.48;49.46;98443.16;4873831;29;20144;-69
2022/10/08 09:15:32;;;;;;;49.25;26.85;;;;;;;33.74;46.49;98439.59;4871647;29;20053;-66
2022/10/08 09:18:28;;;;;;;44.80;28.00;;;;;;;33.86;48.25;98436.59;4871992;29;20044;-72
2022/10/08 09:21:18;;;;;;;44.33;28.42;;;;;;;33.65;46.11;98433.47;4874616;29;20053;-71
2022/10/08 09:24:07;;;;;;;41.97;28.00;;;;;;;33.40;46.04;98428.34;4887358;29;20056;-69
2022/10/08 09:26:51;;;;;;;41.92;27.33;;;;;;;33.48;48.17;98420.91;4873618;29;20048;-68
2022/10/08 09:29:40;;;;;;;45.90;28.23;;;;;;;33.38;46.53;98418.75;4880991;29;20060;-69
2022/10/08 09:32:23;;;;;;;38.40;26.52;;;;;;;33.31;47.43;98414.69;4533072;29;9999947;-70
2022/10/08 09:35:15;;;;;;;49.03;26.73;;;;;;;33.50;46.83;98415.78;4873355;29;20405;-68
2022/10/08 09:38:10;;;;;;;49.33;28.80;;;;;;;33.42;51.76;98409.28;4869194;29;20121;-71
2022/10/08 09:41:03;;;;;;;46.70;28.73;;;;;;;33.17;44.55;98392.19;4867246;29;20057;-71
2022/10/08 09:44:28;;;;;;;36.15;23.98;;;;;;;33.25;45.89;98399.50;4871483;29;20056;-69
2022/10/08 09:47:06;;;;;;;40.42;25.88;;;;;;;33.09;50.50;98391.25;4861661;29;20049;-69
2022/10/08 09:50:12;;;;;;;53.60;29.75;;;;;;;32.77;48.21;98385.97;4871888;29;20113;-71
2022/10/08 09:52:51;;;;;;;39.08;27.48;;;;;;;32.78;46.54;98383.97;4879843;29;20053;-71
2022/10/08 09:55:59;;;;;;;49.20;28.35;;;;;;;33.05;50.09;98382.06;4872226;29;20064;-68
2022/10/08 09:58:51;;;;;;;44.42;27.30;;;;;;;33.16;45.56;98376.69;4874385;29;20049;-68
2022/10/08 10:01:47;;;;;;;36.92;27.13;;;;;;;33.25;46.07;98370.88;4872709;29;20063;-68
2022/10/08 10:04:44;;;;;;;42.70;28.85;;;;;;;33.13;43.25;98374.66;4873427;29;20041;-68
2022/10/08 10:07:46;;;;;;;44.83;28.98;;;;;;;33.21;44.70;98356.94;4857983;29;20059;-67
2022/10/08 10:10:54;;;;;;;39.38;28.25;;;;;;;32.50;45.48;98362.84;4874622;29;20140;-66
2022/10/08 10:13:46;;;;;;;44.92;27.95;;;;;;;32.79;45.22;98360.59;4868698;29;20065;-68
2022/10/08 10:16:55;;;;;;;55.22;28.58;;;;;;;32.55;46.18;98359.72;4857578;29;20056;-69
2022/10/08 10:20:20;;;;;;;44.80;30.65;;;;;;;32.73;47.76;98354.53;4843177;29;20062;-68
2022/10/08 10:23:10;;;;;;;47.42;30.40;;;;;;;32.76;47.89;98348.22;4474870;29;9999811;-66
2022/10/08 10:26:15;;;;;;;47.90;29.92;;;;;;;32.51;48.76;98346.97;4828105;29;20069;-68
2022/10/08 10:28:57;;;;;;;47.85;29.00;;;;;;;32.49;49.07;98352.09;4826265;29;20057;-67
2022/10/08 10:32:02;;;;;;;40.75;29.13;;;;;;;32.60;50.14;98346.75;4831920;29;20058;-67
2022/10/08 10:34:50;;;;;;;44.55;28.98;;;;;;;32.37;49.23;98350.28;4829859;29;20050;-70
2022/10/08 10:37:54;;;;;;;51.28;30.45;;;;;;;32.33;49.33;98346.63;4828189;29;20085;-66
2022/10/08 10:41:19;;;;;;;49.90;31.17;;;;;;;32.25;49.06;98353.22;4833128;29;20056;-66
2022/10/08 10:44:20;;;;;;;45.67;31.80;;;;;;;32.34;52.86;98337.13;4826110;29;20054;-67
2022/10/08 10:46:59;;;;;;;48.38;30.88;;;;;;;32.34;51.26;98342.69;4833242;29;20054;-67
2022/10/08 10:49:54;;;;;;;44.42;30.23;;;;;;;32.31;51.37;98341.47;4838683;29;20050;-67
2022/10/08 10:52:45;;;;;;;43.45;29.27;;;;;;;32.29;48.79;98329.09;4827147;29;20141;-71
2022/10/08 10:55:51;;;;;;;42.53;28.40;;;;;;;32.33;49.13;98332.75;4832446;29;20535;-69
2022/10/08 10:58:54;;;;;;;44.65;28.58;;;;;;;32.36;51.83;98338.34;4835201;29;20073;-69
2022/10/08 11:02:03;;;;;;;45.72;29.20;;;;;;;32.32;50.35;98331.94;4826523;29;20064;-66
2022/10/08 11:04:57;;;;;;;42.37;25.67;;;;;;;32.21;46.98;98327.38;4823577;29;20060;-68
2022/10/08 11:08:29;;;;;;;38.72;24.60;;;;;;;32.42;48.13;98332.50;4831594;29;20297;-68
2022/10/08 11:11:15;;;;;;;36.42;22.52;;;;;;;32.47;46.25;98326.66;4830885;29;20053;-68
2022/10/08 11:14:30;;;;;;;39.67;23.35;;;;;;;32.54;48.33;98313.69;4832959;29;20137;-68
2022/10/08 11:17:41;;;;;;;32.40;23.77;;;;;;;32.42;48.70;98324.19;4834076;29;20399;-70
2022/10/08 11:20:43;;;;;;;35.75;23.10;;;;;;;32.43;47.33;98321.03;4836847;29;20058;-70
2022/10/08 11:23:33;;;;;;;41.28;22.08;;;;;;;32.16;45.24;98323.72;4840898;29;20050;-72
2022/10/08 11:26:46;;;;;;;34.72;21.83;;;;;;;32.31;46.76;98323.97;4837013;29;20050;-72
2022/10/08 11:29:36;;;;;;;31.02;22.77;;;;;;;32.40;46.86;98316.22;4836490;29;20085;-71
2022/10/08 11:32:28;;;;;;;37.95;24.17;;;;;;;32.27;46.98;98320.34;4835741;29;20062;-72
2022/10/08 11:35:48;;;;;;;41.03;23.00;;;;;;;32.25;47.59;98315.13;4832134;29;20057;-71
2022/10/08 11:38:47;;;;;;;42.67;23.55;;;;;;;32.09;47.30;98311.69;4835339;29;20054;-71
2022/10/08 11:41:43;;;;;;;38.08;22.58;;;;;;;31.97;49.41;98313.41;4834340;29;20049;-72
2022/10/08 11:44:32;;;;;;;43.55;22.92;;;;;;;32.03;49.57;98313.94;4833050;29;20054;-76
2022/10/08 11:47:42;;;;;;;32.33;23.38;;;;;;;32.00;49.21;98315.44;4834941;29;20122;-69
2022/10/08 11:50:30;;;;;;;30.27;22.75;;;;;;;31.92;50.03;98318.47;4828595;29;20402;-71
2022/10/08 11:53:21;;;;;;;39.70;21.88;;;;;;;31.86;48.48;98317.16;4834619;29;20069;-71
2022/10/08 11:56:11;;;;;;;35.88;22.30;;;;;;;31.76;51.28;98318.53;4834842;29;20057;-72
2022/10/08 11:58:59;;;;;;;45.33;23.48;;;;;;;31.63;49.59;98311.53;4832999;29;20051;-71
2022/10/08 12:02:36;;;;;;;40.65;23.38;;;;;;;31.60;50.33;98313.03;4831380;29;20057;-69
2022/10/08 12:05:21;;;;;;;32.92;22.30;;;;;;;31.34;49.32;98314.44;4827135;29;20855;-72
2022/10/08 12:08:10;;;;;;;40.33;24.38;;;;;;;31.35;50.26;98315.25;4833776;29;20118;-71
2022/10/08 12:11:31;;;;;;;43.40;23.58;;;;;;;31.51;50.36;98312.44;4833057;29;20406;-70
2022/10/08 12:14:17;;;;;;;45.22;25.40;;;;;;;31.32;52.71;98308.47;4833031;29;20073;-72
2022/10/08 12:17:12;;;;;;;44.13;25.75;;;;;;;31.36;54.45;98312.13;4828255;29;20069;-72
2022/10/08 12:20:03;;;;;;;59.83;31.17;;;;;;;31.22;54.98;98317.31;4834933;29;20053;-72
2022/10/08 12:23:06;;;;;;;50.38;28.20;;;;;;;31.34;55.93;98314.44;4837349;29;20054;-72
2022/10/08 12:25:58;;;;;;;46.78;27.95;;;;;;;31.19;56.17;98318.06;4834120;29;20081;-73
2022/10/08 12:28:49;;;;;;;43.22;28.95;;;;;;;31.00;56.61;98322.38;4838455;29;20118;-73
2022/10/08 12:31:44;;;;;;;43.45;28.20;;;;;;;31.10;56.95;98317.47;4838384;29;20054;-72
2022/10/08 12:34:23;;;;;;;49.17;28.05;;;;;;;31.21;57.00;98318.50;4867235;29;20089;-71
2022/10/08 12:37:36;;;;;;;48.47;28.92;;;;;;;31.11;58.63;98319.03;4837469;29;20045;-70
2022/10/08 12:40:42;;;;;;;53.22;29.52;;;;;;;31.07;58.55;98330.06;4863608;29;20431;-72
2022/10/08 12:43:42;;;;;;;45.35;28.67;;;;;;;30.97;59.77;98325.06;4850816;29;20106;-71
2022/10/08 12:46:51;;;;;;;48.92;29.33;;;;;;;30.91;59.84;98327.31;4828929;29;20121;-71
2022/10/08 12:49:56;;;;;;;44.15;29.40;;;;;;;30.76;59.25;98326.13;4837301;29;20153;-70
2022/10/08 12:52:44;;;;;;;47.17;29.60;;;;;;;30.66;60.77;98332.19;4837699;29;20054;-70
2022/10/08 12:55:27;;;;;;;46.42;28.27;;;;;;;30.68;60.22;98329.06;4830951;29;20091;-71
2022/10/08 12:58:40;;;;;;;50.13;29.90;;;;;;;30.70;61.29;98335.06;4835331;29;20113;-72
2022/10/08 13:01:23;;;;;;;43.78;28.77;;;;;;;30.62;60.38;98332.09;4831473;29;20073;-70
2022/10/08 13:04:33;;;;;;;45.97;29.15;;;;;;;30.53;60.44;98331.47;4832374;29;20168;-70
2022/10/08 13:07:27;;;;;;;47.47;30.80;;;;;;;30.48;60.52;98331.75;4834076;29;20049;-69
2022/10/08 13:10:26;;;;;;;47.60;30.17;;;;;;;30.41;60.98;98342.63;4833499;29;20064;-66